Conroe's Hourly Summary for Sunday, May 13, 2018
Hour Temp
(f)
RH
(%)
Solar Rad.
(MJ/m2)
Rainfall
(in)
Wind
(mph)
5/13/2018 12:00 AM 71 86 0 0 0.21
5/13/2018 1:00 AM 70 90 0 0 0.17
5/13/2018 2:00 AM 69 91 0 0 0.05
5/13/2018 3:00 AM 69 92 0 0 0
5/13/2018 4:00 AM 68 91 0 0 0.03
5/13/2018 5:00 AM 68 93 0 0 0.46
5/13/2018 6:00 AM 68 95 0.02 0 0.67
5/13/2018 7:00 AM 69 95 0.23 0 0.28
5/13/2018 8:00 AM 72 81 0.84 0 1.42
5/13/2018 9:00 AM 77 68 1.23 0 2.54
5/13/2018 10:00 AM 80 57 1.91 0 3.48
5/13/2018 11:00 AM 83 52 2.38 0 4.23
5/13/2018 12:00 PM 85 47 2.82 0 5.01
5/13/2018 1:00 PM 87 44 3.03 0 4.88
5/13/2018 2:00 PM 87 41 2.83 0 3.76
5/13/2018 3:00 PM 87 42 2.36 0 4.9
5/13/2018 4:00 PM 87 43 1.92 0 4.93
5/13/2018 5:00 PM 86 45 1.22 0 5
5/13/2018 6:00 PM 83 49 0.55 0 3.59
5/13/2018 7:00 PM 81 56 0.1 0 2.69
5/13/2018 8:00 PM 78 63 0 0 2.11
5/13/2018 9:00 PM 76 69 0 0 3.57
5/13/2018 10:00 PM 74 76 0 0 3.17
5/13/2018 11:00 PM 73 83 0 0 1.34
Data Summary 77 68 21.44 0.00 2.44